createdAt,value
2023-01-31T00:01:10.578Z,100155.00
2023-01-31T00:03:38.677Z,100154.00
2023-01-31T00:06:15.408Z,100152.00
2023-01-31T00:08:43.295Z,100149.00
2023-01-31T00:11:11.151Z,100145.00
2023-01-31T00:13:39.064Z,100162.00
2023-01-31T00:16:08.099Z,100160.00
2023-01-31T00:18:37.032Z,100155.00
2023-01-31T00:21:09.464Z,100161.00
2023-01-31T00:23:37.191Z,100155.00
2023-01-31T00:26:12.915Z,100160.00
2023-01-31T00:28:41.016Z,100163.00
2023-01-31T00:31:09.817Z,100160.00
2023-01-31T00:33:38.745Z,100175.00
2023-01-31T00:36:07.247Z,100168.00
2023-01-31T00:38:35.447Z,100180.00
2023-01-31T00:41:03.641Z,100190.00
2023-01-31T00:43:31.490Z,100185.00
2023-01-31T00:45:59.210Z,100177.00
2023-01-31T00:48:27.962Z,100176.00
2023-01-31T00:50:55.253Z,100179.00
2023-01-31T00:53:23.212Z,100195.00
2023-01-31T00:55:50.970Z,100190.00
2023-01-31T00:59:07.992Z,100203.00
2023-01-31T01:01:36.995Z,100218.00
2023-01-31T01:04:05.726Z,100222.00
2023-01-31T01:06:33.020Z,100216.00
2023-01-31T01:09:00.297Z,100215.00
2023-01-31T01:11:30.133Z,100213.00
2023-01-31T01:13:58.354Z,100209.00
2023-01-31T01:16:28.263Z,100218.00
2023-01-31T01:18:55.662Z,100233.00
2023-01-31T01:21:26.005Z,100243.00
2023-01-31T01:23:55.320Z,100238.00
2023-01-31T01:26:24.534Z,100247.00
2023-01-31T01:28:52.767Z,100249.00
2023-01-31T01:31:21.991Z,100250.00
2023-01-31T01:33:50.068Z,100257.00
2023-01-31T01:36:21.301Z,100263.00
2023-01-31T01:38:49.642Z,100273.00
2023-01-31T01:41:17.889Z,100264.00
2023-01-31T01:43:46.738Z,100269.00
2023-01-31T01:46:19.885Z,100269.00
2023-01-31T01:48:52.762Z,100273.00
2023-01-31T01:51:21.372Z,100275.00
2023-01-31T01:54:50.580Z,100276.00
2023-01-31T01:57:23.295Z,100281.00
2023-01-31T01:59:57.911Z,100270.00
2023-01-31T02:02:25.365Z,100279.00
2023-01-31T02:04:53.055Z,100278.00
2023-01-31T02:07:20.376Z,100272.00
2023-01-31T02:10:02.540Z,100274.00
2023-01-31T02:12:32.693Z,100276.00
2023-01-31T02:15:00.347Z,100292.00
2023-01-31T02:17:28.002Z,100271.00
2023-01-31T02:20:09.454Z,100293.00
2023-01-31T02:22:43.292Z,100292.00
2023-01-31T02:25:36.981Z,100305.00
2023-01-31T02:28:40.675Z,100310.00
2023-01-31T02:31:42.447Z,100316.00
2023-01-31T02:34:16.409Z,100286.00
2023-01-31T02:36:55.842Z,100305.00
2023-01-31T02:39:32.138Z,100305.00
2023-01-31T02:42:11.343Z,100307.00
2023-01-31T02:45:01.683Z,100324.00
2023-01-31T02:47:48.319Z,100318.00
2023-01-31T02:50:24.143Z,100336.00
2023-01-31T02:52:58.250Z,100347.00
2023-01-31T02:55:48.164Z,100345.00
2023-01-31T02:58:17.841Z,100360.00
2023-01-31T03:00:46.938Z,100335.00
2023-01-31T03:03:19.457Z,100344.00
2023-01-31T03:06:22.443Z,100366.00
2023-01-31T03:08:53.953Z,100365.00
2023-01-31T03:11:25.440Z,100373.00
2023-01-31T03:14:03.006Z,100370.00
2023-01-31T03:16:54.574Z,100380.00
2023-01-31T03:19:27.455Z,100391.00
2023-01-31T03:22:01.813Z,100416.00
2023-01-31T03:24:30.164Z,100411.00
2023-01-31T03:27:00.446Z,100407.00
2023-01-31T03:29:33.736Z,100412.00
2023-01-31T03:32:06.053Z,100410.00
2023-01-31T03:34:33.745Z,100419.00
2023-01-31T03:37:11.607Z,100412.00
2023-01-31T03:39:44.489Z,100414.00
2023-01-31T03:42:19.521Z,100407.00
2023-01-31T03:44:55.751Z,100415.00
2023-01-31T03:47:27.376Z,100425.00
2023-01-31T03:49:56.783Z,100433.00
2023-01-31T03:52:31.112Z,100429.00
2023-01-31T03:55:02.708Z,100428.00
2023-01-31T03:57:34.660Z,100427.00
2023-01-31T04:00:05.320Z,100431.00
2023-01-31T04:02:36.924Z,100430.00
2023-01-31T04:05:08.877Z,100445.00
2023-01-31T04:07:37.358Z,100428.00
2023-01-31T04:10:07.741Z,100433.00
2023-01-31T04:12:37.122Z,100437.00
2023-01-31T04:15:05.935Z,100428.00
2023-01-31T04:17:33.174Z,100428.00
2023-01-31T04:20:00.831Z,100429.00
2023-01-31T04:22:28.566Z,100423.00
2023-01-31T04:24:56.517Z,100426.00
2023-01-31T04:27:24.096Z,100437.00
2023-01-31T04:29:51.422Z,100444.00
2023-01-31T04:32:18.840Z,100442.00
2023-01-31T04:34:46.144Z,100438.00
2023-01-31T04:37:13.473Z,100439.00
2023-01-31T04:39:40.760Z,100432.00
2023-01-31T04:42:08.746Z,100441.00
2023-01-31T04:44:36.169Z,100463.00
2023-01-31T04:47:03.902Z,100437.00
2023-01-31T04:49:31.727Z,100452.00
2023-01-31T04:51:59.096Z,100451.00
2023-01-31T04:54:26.432Z,100451.00
2023-01-31T04:56:53.733Z,100453.00
2023-01-31T04:59:21.666Z,100448.00
2023-01-31T05:01:49.005Z,100457.00
2023-01-31T05:04:16.297Z,100449.00
2023-01-31T05:06:43.600Z,100453.00
2023-01-31T05:09:12.224Z,100465.00
2023-01-31T05:11:39.624Z,100470.00
2023-01-31T05:14:07.217Z,100461.00
2023-01-31T05:16:35.183Z,100468.00
2023-01-31T05:19:02.789Z,100476.00
2023-01-31T05:21:30.031Z,100476.00
2023-01-31T05:23:57.335Z,100474.00
2023-01-31T05:26:24.609Z,100477.00
2023-01-31T05:28:51.863Z,100476.00
2023-01-31T05:31:19.246Z,100493.00
2023-01-31T05:33:48.235Z,100477.00
2023-01-31T05:36:15.497Z,100486.00
2023-01-31T05:38:42.748Z,100492.00
2023-01-31T05:41:10.023Z,100492.00
2023-01-31T05:43:37.389Z,100493.00
2023-01-31T05:46:04.868Z,100491.00
2023-01-31T05:48:32.190Z,100490.00
2023-01-31T05:51:00.130Z,100490.00
2023-01-31T05:53:27.397Z,100500.00
2023-01-31T05:55:54.672Z,100498.00
2023-01-31T05:58:22.027Z,100500.00
2023-01-31T06:00:49.351Z,100477.00
2023-01-31T06:03:17.134Z,100490.00
2023-01-31T06:05:44.443Z,100495.00
2023-01-31T06:08:13.202Z,100479.00
2023-01-31T06:10:40.708Z,100480.00
2023-01-31T06:13:08.033Z,100493.00
2023-01-31T06:15:37.007Z,100479.00
2023-01-31T06:18:04.536Z,100499.00
2023-01-31T06:20:31.863Z,100490.00
2023-01-31T06:23:00.355Z,100511.00
2023-01-31T06:25:28.390Z,100520.00
2023-01-31T06:27:56.856Z,100510.00
2023-01-31T06:30:24.168Z,100522.00
2023-01-31T06:32:51.470Z,100514.00
2023-01-31T06:35:19.087Z,100518.00
2023-01-31T06:37:46.504Z,100518.00
2023-01-31T06:40:13.791Z,100513.00
2023-01-31T06:42:41.746Z,100518.00
2023-01-31T06:45:10.286Z,100520.00
2023-01-31T06:47:37.525Z,100512.00
2023-01-31T06:50:05.704Z,100503.00
2023-01-31T06:52:33.000Z,100506.00
2023-01-31T06:55:00.263Z,100504.00
2023-01-31T06:57:27.530Z,100511.00
2023-01-31T06:59:55.517Z,100518.00
2023-01-31T07:02:22.779Z,100536.00
2023-01-31T07:04:50.365Z,100513.00
2023-01-31T07:07:17.822Z,100520.00
2023-01-31T07:09:45.159Z,100514.00
2023-01-31T07:12:12.446Z,100523.00
2023-01-31T07:14:39.774Z,100537.00
2023-01-31T07:17:07.716Z,100528.00
2023-01-31T07:19:35.042Z,100517.00
2023-01-31T07:22:02.345Z,100539.00
2023-01-31T07:24:30.203Z,100529.00
2023-01-31T07:26:57.588Z,100521.00
2023-01-31T07:29:24.908Z,100515.00
2023-01-31T07:31:53.924Z,100536.00
2023-01-31T07:34:22.381Z,100528.00
2023-01-31T07:36:49.903Z,100522.00
2023-01-31T07:39:17.439Z,100532.00
2023-01-31T07:41:44.754Z,100524.00
2023-01-31T07:44:12.051Z,100515.00
2023-01-31T07:46:40.533Z,100533.00
2023-01-31T07:49:09.022Z,100521.00
2023-01-31T07:51:38.287Z,100520.00
2023-01-31T07:54:05.952Z,100520.00
2023-01-31T07:56:33.405Z,100513.00
2023-01-31T07:59:00.648Z,100514.00
2023-01-31T08:01:49.174Z,100530.00
2023-01-31T08:04:21.904Z,100512.00
2023-01-31T08:06:53.674Z,100514.00
2023-01-31T08:09:21.072Z,100531.00
2023-01-31T08:11:48.628Z,100532.00
2023-01-31T08:14:15.906Z,100523.00
2023-01-31T08:16:43.461Z,100526.00
2023-01-31T08:19:10.748Z,100521.00
2023-01-31T08:21:38.221Z,100520.00
2023-01-31T08:24:06.906Z,100532.00
2023-01-31T08:26:34.229Z,100523.00
2023-01-31T08:29:01.897Z,100518.00
2023-01-31T08:31:29.795Z,100504.00
2023-01-31T08:33:57.297Z,100520.00
2023-01-31T08:36:26.569Z,100514.00
2023-01-31T08:38:55.024Z,100524.00
2023-01-31T08:41:24.974Z,100524.00
2023-01-31T08:43:57.547Z,100519.00
2023-01-31T08:46:27.390Z,100536.00
2023-01-31T08:48:55.616Z,100533.00
2023-01-31T08:51:23.828Z,100537.00
2023-01-31T08:53:51.249Z,100525.00
2023-01-31T08:56:20.573Z,100524.00
2023-01-31T08:58:48.582Z,100520.00
2023-01-31T09:01:17.453Z,100519.00
2023-01-31T09:03:46.070Z,100528.00
2023-01-31T09:06:16.860Z,100522.00
2023-01-31T09:08:44.305Z,100524.00
2023-01-31T09:11:16.288Z,100508.00
2023-01-31T09:13:43.608Z,100517.00
2023-01-31T09:16:13.484Z,100512.00
2023-01-31T09:18:41.143Z,100510.00
2023-01-31T09:21:10.005Z,100503.00
2023-01-31T09:23:39.317Z,100498.00
2023-01-31T09:26:10.164Z,100496.00
2023-01-31T09:28:37.932Z,100493.00
2023-01-31T09:31:07.078Z,100504.00
2023-01-31T09:33:36.254Z,100502.00
2023-01-31T09:36:05.619Z,100510.00
2023-01-31T09:38:33.188Z,100499.00
2023-01-31T09:41:03.373Z,100506.00
2023-01-31T09:43:38.376Z,100501.00
2023-01-31T09:46:08.373Z,100491.00
2023-01-31T09:48:42.144Z,100492.00
2023-01-31T09:51:12.713Z,100476.00
2023-01-31T09:53:42.315Z,100474.00
2023-01-31T09:56:23.004Z,100486.00
2023-01-31T09:58:59.362Z,100479.00
2023-01-31T10:01:32.987Z,100484.00
2023-01-31T10:04:24.447Z,100474.00
2023-01-31T10:06:58.159Z,100468.00
2023-01-31T10:09:31.702Z,100470.00
2023-01-31T10:12:04.910Z,100475.00
2023-01-31T10:14:36.673Z,100469.00
2023-01-31T10:17:10.565Z,100467.00
2023-01-31T10:19:45.120Z,100466.00
2023-01-31T10:22:19.190Z,100448.00
2023-01-31T10:24:51.934Z,100462.00
2023-01-31T10:27:31.394Z,100455.00
2023-01-31T10:30:03.838Z,100448.00
2023-01-31T10:32:35.403Z,100451.00
2023-01-31T10:35:11.779Z,100456.00
2023-01-31T10:37:45.457Z,100442.00
2023-01-31T10:40:15.830Z,100440.00
2023-01-31T10:42:48.315Z,100426.00
2023-01-31T10:45:18.368Z,100445.00
2023-01-31T10:47:50.856Z,100431.00
2023-01-31T10:50:27.363Z,100433.00
2023-01-31T10:53:12.250Z,100425.00
2023-01-31T10:55:52.605Z,100419.00
2023-01-31T10:58:22.761Z,100407.00
2023-01-31T11:00:50.508Z,100402.00
2023-01-31T11:03:18.296Z,100405.00
2023-01-31T11:05:51.091Z,100401.00
2023-01-31T11:08:31.617Z,100390.00
2023-01-31T11:11:06.516Z,100377.00
2023-01-31T11:13:34.000Z,100369.00
2023-01-31T11:16:04.152Z,100373.00
2023-01-31T11:18:34.642Z,100366.00
2023-01-31T11:21:03.945Z,100370.00
2023-01-31T11:23:33.559Z,100357.00
2023-01-31T11:26:01.275Z,100355.00
2023-01-31T11:28:35.121Z,100342.00
2023-01-31T11:31:03.764Z,100338.00
2023-01-31T11:33:44.511Z,100356.00
2023-01-31T11:36:14.520Z,100335.00
2023-01-31T11:38:42.490Z,100335.00
2023-01-31T11:41:28.842Z,100335.00
2023-01-31T11:44:14.664Z,100335.00
2023-01-31T11:46:48.761Z,100325.00
2023-01-31T11:49:31.339Z,100323.00
2023-01-31T11:52:02.471Z,100301.00
2023-01-31T11:54:33.307Z,100311.00
2023-01-31T11:57:01.409Z,100293.00
2023-01-31T11:59:30.472Z,100302.00
2023-01-31T12:02:00.492Z,100279.00
2023-01-31T12:04:34.371Z,100284.00
2023-01-31T12:07:05.614Z,100288.00
2023-01-31T12:09:43.010Z,100278.00
2023-01-31T12:12:30.471Z,100270.00
2023-01-31T12:15:01.644Z,100270.00
2023-01-31T12:17:31.473Z,100259.00
2023-01-31T12:20:28.482Z,100255.00
2023-01-31T12:23:06.668Z,100259.00
2023-01-31T12:25:49.760Z,100236.00
2023-01-31T12:28:31.146Z,100234.00
2023-01-31T12:31:23.001Z,100234.00
2023-01-31T12:34:02.485Z,100232.00
2023-01-31T12:36:46.957Z,100236.00
2023-01-31T12:39:35.811Z,100216.00
2023-01-31T12:42:24.327Z,100233.00
2023-01-31T12:45:02.555Z,100206.00
2023-01-31T12:47:46.791Z,100207.00
2023-01-31T12:50:28.410Z,100207.00
2023-01-31T12:53:11.926Z,100206.00
2023-01-31T12:55:46.769Z,100196.00
2023-01-31T12:58:28.267Z,100186.00
2023-01-31T13:01:03.517Z,100166.00
2023-01-31T13:03:54.007Z,100172.00
2023-01-31T13:06:27.814Z,100181.00
2023-01-31T13:09:07.667Z,100177.00
2023-01-31T13:11:41.056Z,100167.00
2023-01-31T13:14:13.766Z,100168.00
2023-01-31T13:16:44.527Z,100174.00
2023-01-31T13:19:20.001Z,100163.00
2023-01-31T13:21:51.615Z,100153.00
2023-01-31T13:24:21.429Z,100147.00
2023-01-31T13:26:54.587Z,100136.00
2023-01-31T13:29:26.624Z,100138.00
2023-01-31T13:31:59.206Z,100138.00
2023-01-31T13:34:31.584Z,100137.00
2023-01-31T13:37:02.051Z,100141.00
2023-01-31T13:39:34.339Z,100143.00
2023-01-31T13:42:02.406Z,100122.00
2023-01-31T13:44:30.016Z,100120.00
2023-01-31T13:47:01.352Z,100116.00
2023-01-31T13:49:33.149Z,100129.00
2023-01-31T13:52:02.892Z,100115.00
2023-01-31T13:54:35.102Z,100119.00
2023-01-31T13:57:03.781Z,100116.00
2023-01-31T13:59:34.211Z,100115.00
2023-01-31T14:02:03.988Z,100117.00
2023-01-31T14:04:39.128Z,100103.00
2023-01-31T14:07:20.217Z,100096.00
2023-01-31T14:10:20.479Z,100105.00
2023-01-31T14:12:49.295Z,100095.00
2023-01-31T14:15:46.797Z,100093.00
2023-01-31T14:18:41.476Z,100089.00
2023-01-31T14:21:43.997Z,100076.00
2023-01-31T14:24:21.296Z,100095.00
2023-01-31T14:26:53.614Z,100080.00
2023-01-31T14:29:23.867Z,100078.00
2023-01-31T14:31:53.594Z,100070.00
2023-01-31T14:34:23.308Z,100069.00
2023-01-31T14:37:05.385Z,100055.00
2023-01-31T14:40:11.738Z,100051.00
2023-01-31T14:43:06.507Z,100068.00
2023-01-31T14:45:56.849Z,100061.00
2023-01-31T14:48:42.957Z,100054.00
2023-01-31T14:51:16.485Z,100061.00
2023-01-31T14:54:25.601Z,100051.00
2023-01-31T14:57:10.427Z,100053.00
2023-01-31T14:59:44.628Z,100057.00
2023-01-31T15:02:49.430Z,100036.00
2023-01-31T15:05:32.777Z,100033.00
2023-01-31T15:08:06.071Z,100051.00
2023-01-31T15:11:01.436Z,100045.00
2023-01-31T15:13:46.547Z,100040.00
2023-01-31T15:16:20.534Z,100038.00
2023-01-31T15:18:52.984Z,100048.00
2023-01-31T15:21:25.288Z,100059.00
2023-01-31T15:23:53.981Z,100061.00
2023-01-31T15:26:22.679Z,100059.00
2023-01-31T15:28:52.250Z,100060.00
2023-01-31T15:31:25.540Z,100057.00
2023-01-31T15:33:59.477Z,100066.00
2023-01-31T15:36:31.763Z,100081.00
2023-01-31T15:39:05.781Z,100078.00
2023-01-31T15:41:43.580Z,100081.00
2023-01-31T15:44:16.185Z,100082.00
2023-01-31T15:46:44.755Z,100080.00
2023-01-31T15:49:39.105Z,100080.00
2023-01-31T15:52:13.709Z,100089.00
2023-01-31T15:54:51.018Z,100079.00
2023-01-31T15:57:18.914Z,100080.00
2023-01-31T15:59:48.311Z,100074.00
2023-01-31T16:02:22.537Z,100070.00
2023-01-31T16:04:50.672Z,100062.00
2023-01-31T16:07:19.438Z,100051.00
2023-01-31T16:09:47.723Z,100055.00
2023-01-31T16:12:15.835Z,100059.00
2023-01-31T16:14:47.265Z,100066.00
2023-01-31T16:17:15.193Z,100059.00
2023-01-31T16:19:43.599Z,100048.00
2023-01-31T16:22:27.195Z,100062.00
2023-01-31T16:24:56.131Z,100063.00
2023-01-31T16:27:24.244Z,100059.00
2023-01-31T16:29:53.974Z,100062.00
2023-01-31T16:32:23.896Z,100059.00
2023-01-31T16:34:57.080Z,100051.00
2023-01-31T16:37:35.178Z,100044.00
2023-01-31T16:40:07.085Z,100051.00
2023-01-31T16:42:38.035Z,100057.00
2023-01-31T16:45:29.239Z,100055.00
2023-01-31T16:48:09.484Z,100055.00
2023-01-31T16:50:43.201Z,100067.00
2023-01-31T16:53:23.426Z,100056.00
2023-01-31T16:56:19.022Z,100080.00
2023-01-31T16:58:52.399Z,100082.00
2023-01-31T17:01:22.853Z,100075.00
2023-01-31T17:04:05.619Z,100057.00
2023-01-31T17:06:33.462Z,100063.00
2023-01-31T17:09:03.151Z,100060.00
2023-01-31T17:11:42.024Z,100061.00
2023-01-31T17:14:09.919Z,100073.00
2023-01-31T17:16:37.225Z,100079.00
2023-01-31T17:19:04.680Z,100076.00
2023-01-31T17:21:37.059Z,100060.00
2023-01-31T17:24:05.559Z,100055.00
2023-01-31T17:26:32.870Z,100046.00
2023-01-31T17:29:02.405Z,100058.00
2023-01-31T17:31:30.521Z,100058.00
2023-01-31T17:33:57.834Z,100077.00
2023-01-31T17:36:25.216Z,100062.00
2023-01-31T17:38:53.187Z,100055.00
2023-01-31T17:41:23.820Z,100059.00
2023-01-31T17:43:51.545Z,100062.00
2023-01-31T17:46:19.461Z,100057.00
2023-01-31T17:48:46.928Z,100059.00
2023-01-31T17:51:14.356Z,100049.00
2023-01-31T17:53:49.422Z,100047.00
2023-01-31T17:56:17.730Z,100032.00
2023-01-31T17:58:45.675Z,100022.00
2023-01-31T18:01:13.670Z,100020.00
2023-01-31T18:03:41.419Z,100018.00
2023-01-31T18:06:10.191Z,100024.00
2023-01-31T18:08:37.631Z,100018.00
2023-01-31T18:11:05.862Z,100021.00
2023-01-31T18:13:35.025Z,100003.00
2023-01-31T18:16:04.366Z,99987.00
2023-01-31T18:18:31.677Z,100015.00
2023-01-31T18:20:59.286Z,100002.00
2023-01-31T18:23:26.539Z,99996.00
2023-01-31T18:25:54.496Z,100003.00
2023-01-31T18:28:22.032Z,99985.00
2023-01-31T18:30:50.739Z,99990.00
2023-01-31T18:33:18.807Z,99987.00
2023-01-31T18:35:56.743Z,99992.00
2023-01-31T18:38:25.051Z,99988.00
2023-01-31T18:40:52.406Z,99993.00
2023-01-31T18:43:19.892Z,99980.00
2023-01-31T18:45:47.316Z,99991.00
2023-01-31T18:48:14.577Z,99982.00
2023-01-31T18:50:42.530Z,100000.00
2023-01-31T18:53:09.891Z,99983.00
2023-01-31T18:55:37.170Z,100003.00
2023-01-31T18:58:04.425Z,99991.00
2023-01-31T19:00:31.802Z,99995.00
2023-01-31T19:02:59.232Z,99993.00
2023-01-31T19:05:26.645Z,99991.00
2023-01-31T19:07:54.592Z,99979.00
2023-01-31T19:10:22.027Z,99977.00
2023-01-31T19:12:49.286Z,99975.00
2023-01-31T19:15:16.562Z,99971.00
2023-01-31T19:17:43.922Z,99974.00
2023-01-31T19:20:12.264Z,99970.00
2023-01-31T19:22:42.607Z,99976.00
2023-01-31T19:25:13.984Z,99976.00
2023-01-31T19:27:42.971Z,99970.00
2023-01-31T19:30:11.454Z,99985.00
2023-01-31T19:32:41.900Z,99971.00
2023-01-31T19:35:09.695Z,99977.00
2023-01-31T19:37:36.935Z,99975.00
2023-01-31T19:40:07.128Z,99977.00
2023-01-31T19:42:36.208Z,99965.00
2023-01-31T19:45:03.831Z,99967.00
2023-01-31T19:47:32.445Z,99983.00
2023-01-31T19:50:02.066Z,99977.00
2023-01-31T19:52:30.985Z,99977.00
2023-01-31T19:54:58.251Z,99987.00
2023-01-31T19:57:25.705Z,99987.00
2023-01-31T19:59:53.702Z,99998.00
2023-01-31T20:02:21.098Z,100011.00
2023-01-31T20:04:48.419Z,100017.00
2023-01-31T20:07:15.739Z,100015.00
2023-01-31T20:09:43.064Z,100010.00
2023-01-31T20:12:11.811Z,99981.00
2023-01-31T20:14:39.177Z,99983.00
2023-01-31T20:17:07.156Z,99992.00
2023-01-31T20:19:34.428Z,99989.00
2023-01-31T20:22:01.760Z,100001.00
2023-01-31T20:24:29.054Z,100002.00
2023-01-31T20:27:01.188Z,100004.00
2023-01-31T20:29:34.471Z,99971.00
2023-01-31T20:32:01.835Z,99991.00
2023-01-31T20:34:29.979Z,99983.00
2023-01-31T20:36:57.452Z,99978.00
2023-01-31T20:39:25.201Z,99980.00
2023-01-31T20:41:52.523Z,99979.00
2023-01-31T20:44:21.724Z,99987.00
2023-01-31T20:46:50.911Z,99986.00
2023-01-31T20:49:18.318Z,99980.00
2023-01-31T20:51:46.491Z,99974.00
2023-01-31T20:54:16.656Z,99972.00
2023-01-31T20:56:45.444Z,99990.00
2023-01-31T20:59:15.541Z,100003.00
2023-01-31T21:01:43.007Z,100000.00
2023-01-31T21:04:10.652Z,99998.00
2023-01-31T21:06:42.708Z,100001.00
2023-01-31T21:09:11.069Z,100000.00
2023-01-31T21:11:38.395Z,100000.00
2023-01-31T21:14:05.889Z,99994.00
2023-01-31T21:16:38.452Z,99987.00
2023-01-31T21:19:08.867Z,99990.00
2023-01-31T21:21:36.140Z,99987.00
2023-01-31T21:24:03.874Z,99991.00
2023-01-31T21:26:32.167Z,100005.00
2023-01-31T21:29:01.749Z,100001.00
2023-01-31T21:31:34.760Z,100011.00
2023-01-31T21:34:06.101Z,100019.00
2023-01-31T21:36:35.329Z,100017.00
2023-01-31T21:39:03.003Z,100011.00
2023-01-31T21:41:49.254Z,100010.00
2023-01-31T21:44:21.296Z,100002.00
2023-01-31T21:46:49.125Z,100010.00
2023-01-31T21:49:16.517Z,100010.00
2023-01-31T21:51:45.861Z,100023.00
2023-01-31T21:54:15.927Z,100016.00
2023-01-31T21:56:44.178Z,100010.00
2023-01-31T21:59:23.848Z,100022.00
2023-01-31T22:01:51.652Z,100006.00
2023-01-31T22:04:22.605Z,100016.00
2023-01-31T22:06:50.545Z,100027.00
2023-01-31T22:09:18.356Z,100014.00
2023-01-31T22:11:47.285Z,100014.00
2023-01-31T22:14:16.396Z,100005.00
2023-01-31T22:16:46.036Z,100028.00
2023-01-31T22:19:16.823Z,100022.00
2023-01-31T22:21:44.497Z,100012.00
2023-01-31T22:24:16.340Z,100001.00
2023-01-31T22:26:48.238Z,100014.00
2023-01-31T22:29:15.874Z,100008.00
2023-01-31T22:31:44.830Z,100007.00
2023-01-31T22:34:16.273Z,100014.00
2023-01-31T22:36:43.542Z,100005.00
2023-01-31T22:39:14.759Z,100004.00
2023-01-31T22:41:43.932Z,100010.00
2023-01-31T22:44:13.760Z,99988.00
2023-01-31T22:46:41.154Z,100012.00
2023-01-31T22:49:08.690Z,100017.00
2023-01-31T22:51:38.011Z,100009.00
2023-01-31T22:54:06.756Z,100024.00
2023-01-31T22:56:35.419Z,100029.00
2023-01-31T22:59:04.497Z,100013.00
2023-01-31T23:01:36.884Z,100018.00
2023-01-31T23:04:06.220Z,100015.00
2023-01-31T23:06:34.870Z,100020.00
2023-01-31T23:09:06.400Z,100029.00
2023-01-31T23:11:33.702Z,100026.00
2023-01-31T23:14:02.308Z,100013.00
2023-01-31T23:16:44.170Z,100027.00
2023-01-31T23:19:12.747Z,100017.00
2023-01-31T23:21:41.947Z,100019.00
2023-01-31T23:24:09.720Z,100035.00
2023-01-31T23:26:37.194Z,100023.00
2023-01-31T23:29:04.645Z,100025.00
2023-01-31T23:31:32.136Z,100020.00
2023-01-31T23:33:59.975Z,100023.00
2023-01-31T23:36:28.244Z,100033.00
2023-01-31T23:38:55.645Z,100034.00
2023-01-31T23:41:22.900Z,100024.00
2023-01-31T23:43:50.168Z,100027.00
2023-01-31T23:46:17.429Z,100035.00
2023-01-31T23:48:44.728Z,100040.00
2023-01-31T23:51:12.041Z,100041.00
2023-01-31T23:53:39.989Z,100052.00
2023-01-31T23:56:07.789Z,100044.00
2023-01-31T23:58:35.139Z,100051.00
